createdAt,value
2018-08-17T00:00:03.056Z,3.23
2018-08-17T00:02:37.539Z,3.90
2018-08-17T00:05:11.437Z,3.95
2018-08-17T00:07:45.197Z,4.07
2018-08-17T00:10:19.019Z,4.00
2018-08-17T00:12:53.589Z,3.55
2018-08-17T00:15:27.398Z,3.73
2018-08-17T00:18:01.174Z,3.50
2018-08-17T00:20:35.035Z,3.60
2018-08-17T00:23:08.743Z,3.92
2018-08-17T00:25:43.252Z,4.20
2018-08-17T00:28:17.078Z,3.60
2018-08-17T00:30:50.872Z,3.58
2018-08-17T00:33:24.695Z,3.50
2018-08-17T00:35:59.315Z,3.85
2018-08-17T00:38:33.116Z,3.80
2018-08-17T00:41:07.599Z,3.20
2018-08-17T00:43:41.443Z,3.75
2018-08-17T00:46:16.029Z,4.03
2018-08-17T00:48:49.867Z,4.50
2018-08-17T00:51:23.621Z,3.80
2018-08-17T00:53:58.274Z,3.70
2018-08-17T00:56:32.692Z,3.90
2018-08-17T00:59:06.564Z,4.47
2018-08-17T01:01:41.758Z,3.78
2018-08-17T01:04:15.676Z,3.90
2018-08-17T01:06:50.288Z,4.00
2018-08-17T01:09:24.940Z,4.40
2018-08-17T01:11:58.746Z,3.90
2018-08-17T01:14:33.363Z,4.35
2018-08-17T01:17:07.296Z,3.83
2018-08-17T01:19:40.980Z,4.05
2018-08-17T01:22:14.825Z,3.70
2018-08-17T01:24:49.257Z,3.80
2018-08-17T01:27:23.157Z,3.90
2018-08-17T01:29:56.951Z,3.90
2018-08-17T01:32:30.715Z,3.67
2018-08-17T01:35:04.572Z,3.80
2018-08-17T01:37:38.379Z,3.92
2018-08-17T01:40:12.930Z,4.10
2018-08-17T01:42:47.571Z,3.67
2018-08-17T01:45:22.230Z,4.00
2018-08-17T01:47:56.832Z,3.50
2018-08-17T01:50:30.672Z,3.60
2018-08-17T01:53:04.408Z,4.10
2018-08-17T01:55:38.150Z,3.90
2018-08-17T01:58:12.557Z,3.65
2018-08-17T02:00:46.651Z,3.75
2018-08-17T02:03:20.452Z,4.55
2018-08-17T02:05:55.069Z,3.50
2018-08-17T02:08:29.605Z,4.20
2018-08-17T02:11:04.252Z,4.47
2018-08-17T02:13:37.879Z,3.70
2018-08-17T02:16:11.784Z,4.18
2018-08-17T02:18:45.628Z,4.30
2018-08-17T02:21:19.355Z,3.85
2018-08-17T02:23:53.897Z,3.70
2018-08-17T02:26:27.760Z,3.62
2018-08-17T02:29:01.414Z,3.95
2018-08-17T02:31:35.171Z,4.00
2018-08-17T02:34:08.972Z,4.70
2018-08-17T02:36:43.546Z,4.07
2018-08-17T02:39:17.392Z,3.90
2018-08-17T02:41:51.982Z,5.10
2018-08-17T02:44:25.773Z,5.03
2018-08-17T02:46:59.444Z,5.10
2018-08-17T02:49:33.298Z,4.70
2018-08-17T02:52:07.007Z,4.85
2018-08-17T02:54:40.720Z,4.93
2018-08-17T02:57:15.295Z,4.30
2018-08-17T02:59:49.152Z,4.50
2018-08-17T03:02:23.727Z,4.80
2018-08-17T03:04:57.650Z,4.18
2018-08-17T03:07:31.507Z,4.70
2018-08-17T03:10:05.364Z,4.70
2018-08-17T03:12:39.232Z,4.32
2018-08-17T03:15:13.157Z,4.40
2018-08-17T03:17:47.729Z,4.37
2018-08-17T03:20:21.612Z,5.32
2018-08-17T03:22:55.472Z,4.90
2018-08-17T03:25:29.188Z,4.10
2018-08-17T03:28:02.997Z,5.00
2018-08-17T03:30:36.953Z,4.65
2018-08-17T03:33:10.772Z,4.60
2018-08-17T03:35:44.668Z,5.53
2018-08-17T03:38:19.269Z,4.20
2018-08-17T03:40:52.997Z,4.75
2018-08-17T03:43:26.715Z,5.12
2018-08-17T03:46:00.596Z,5.05
2018-08-17T03:48:34.423Z,5.47
2018-08-17T03:51:08.255Z,4.93
2018-08-17T03:53:41.991Z,4.80
2018-08-17T03:56:16.620Z,4.60
2018-08-17T03:58:52.071Z,4.95
2018-08-17T04:01:25.852Z,4.50
2018-08-17T04:03:59.665Z,4.82
2018-08-17T04:06:33.323Z,6.45
2018-08-17T04:09:07.096Z,5.30
2018-08-17T04:11:40.807Z,5.45
2018-08-17T04:14:14.442Z,4.90
2018-08-17T04:16:48.207Z,4.50
2018-08-17T04:19:22.065Z,4.55
2018-08-17T04:21:55.924Z,4.20
2018-08-17T04:24:29.787Z,5.40
2018-08-17T04:27:04.360Z,4.55
2018-08-17T04:29:38.159Z,5.03
2018-08-17T04:32:11.959Z,4.80
2018-08-17T04:34:45.842Z,5.82
2018-08-17T04:37:19.717Z,4.55
2018-08-17T04:39:53.407Z,4.15
2018-08-17T04:42:27.953Z,4.35
2018-08-17T04:45:01.759Z,6.55
2018-08-17T04:47:36.271Z,4.90
2018-08-17T04:50:10.137Z,5.50
2018-08-17T04:52:43.976Z,4.93
2018-08-17T04:55:18.626Z,5.70
2018-08-17T04:57:52.468Z,5.45
2018-08-17T05:00:26.261Z,4.55
2018-08-17T05:02:59.931Z,5.68
2018-08-17T05:05:33.815Z,5.20
2018-08-17T05:08:08.409Z,5.93
2018-08-17T05:10:43.483Z,6.00
2018-08-17T05:13:19.313Z,5.50
2018-08-17T05:15:55.837Z,5.40
2018-08-17T05:18:30.427Z,5.53
2018-08-17T05:21:05.147Z,6.07
2018-08-17T05:23:39.713Z,5.18
2018-08-17T05:26:13.541Z,5.30
2018-08-17T05:28:48.331Z,5.40
2018-08-17T05:31:23.145Z,5.60
2018-08-17T05:33:57.034Z,5.55
2018-08-17T05:36:30.760Z,5.10
2018-08-17T05:39:04.599Z,5.18
2018-08-17T05:41:38.501Z,7.12
2018-08-17T05:44:12.317Z,5.35
2018-08-17T05:46:46.104Z,6.20
2018-08-17T05:49:20.819Z,5.70
2018-08-17T05:51:55.255Z,5.95
2018-08-17T05:54:29.096Z,5.67
2018-08-17T05:57:03.573Z,5.53
2018-08-17T05:59:38.229Z,6.68
2018-08-17T06:02:12.053Z,7.03
2018-08-17T06:04:45.844Z,8.40
2018-08-17T06:07:20.559Z,10.30
2018-08-17T06:09:54.378Z,4.93
2018-08-17T06:12:28.119Z,6.40
2018-08-17T06:15:01.940Z,5.70
2018-08-17T06:17:35.732Z,7.55
2018-08-17T06:20:09.582Z,6.93
2018-08-17T06:22:43.439Z,5.80
2018-08-17T06:25:17.281Z,7.03
2018-08-17T06:27:51.808Z,5.70
2018-08-17T06:30:26.400Z,6.55
2018-08-17T06:33:00.303Z,5.90
2018-08-17T06:35:34.877Z,5.53
2018-08-17T06:38:09.472Z,6.30
2018-08-17T06:40:43.256Z,7.37
2018-08-17T06:43:17.680Z,6.85
2018-08-17T06:45:52.425Z,6.95
2018-08-17T06:48:26.944Z,6.57
2018-08-17T06:51:00.976Z,6.80
2018-08-17T06:53:35.487Z,7.90
2018-08-17T06:56:09.307Z,7.97
2018-08-17T06:58:44.065Z,6.03
2018-08-17T07:01:17.971Z,6.00
2018-08-17T07:03:51.782Z,6.90
2018-08-17T07:06:25.413Z,6.77
2018-08-17T07:09:00.429Z,6.37
2018-08-17T07:11:35.017Z,6.40
2018-08-17T07:14:08.790Z,5.80
2018-08-17T07:16:42.695Z,8.00
2018-08-17T07:19:16.521Z,5.00
2018-08-17T07:21:50.217Z,5.90
2018-08-17T07:24:24.827Z,6.80
2018-08-17T07:26:59.470Z,5.57
2018-08-17T07:29:33.956Z,5.40
2018-08-17T07:32:08.723Z,5.90
2018-08-17T07:34:42.399Z,7.83
2018-08-17T07:37:16.959Z,6.07
2018-08-17T07:39:50.732Z,6.20
2018-08-17T07:42:24.608Z,6.40
2018-08-17T07:44:58.363Z,6.80
2018-08-17T07:47:32.202Z,6.53
2018-08-17T07:50:06.005Z,6.53
2018-08-17T07:52:40.633Z,6.10
2018-08-17T07:55:14.403Z,6.00
2018-08-17T07:57:49.046Z,6.83
2018-08-17T08:00:23.552Z,5.90
2018-08-17T08:02:57.284Z,6.80
2018-08-17T08:05:31.091Z,7.40
2018-08-17T08:08:04.932Z,7.40
2018-08-17T08:10:38.651Z,5.97
2018-08-17T08:13:12.296Z,6.90
2018-08-17T08:15:46.183Z,6.20
2018-08-17T08:18:20.691Z,6.67
2018-08-17T08:20:54.443Z,6.20
2018-08-17T08:23:29.149Z,5.50
2018-08-17T08:26:03.053Z,5.73
2018-08-17T08:28:36.801Z,6.40
2018-08-17T08:31:10.713Z,6.83
2018-08-17T08:33:44.364Z,6.40
2018-08-17T08:36:19.008Z,5.83
2018-08-17T08:38:53.639Z,6.20
2018-08-17T08:41:27.473Z,5.77
2018-08-17T08:44:24.278Z,5.30
2018-08-17T08:46:57.972Z,5.40
2018-08-17T08:49:32.457Z,5.10
2018-08-17T08:52:06.180Z,4.37
2018-08-17T08:54:39.816Z,5.20
2018-08-17T08:57:13.615Z,5.20
2018-08-17T08:59:47.495Z,5.33
2018-08-17T09:02:21.288Z,4.90
2018-08-17T09:04:55.144Z,5.80
2018-08-17T09:07:29.571Z,5.17
2018-08-17T09:10:03.471Z,5.10
2018-08-17T09:12:37.899Z,5.47
2018-08-17T09:15:11.592Z,4.90
2018-08-17T09:17:45.472Z,5.60
2018-08-17T09:20:19.334Z,5.60
2018-08-17T09:22:53.329Z,5.20
2018-08-17T09:25:27.028Z,5.90
2018-08-17T09:28:00.867Z,5.57
2018-08-17T09:30:34.619Z,5.10
2018-08-17T09:33:09.251Z,5.07
2018-08-17T09:35:42.840Z,4.60
2018-08-17T09:38:16.787Z,5.07
2018-08-17T09:40:51.463Z,4.77
2018-08-17T09:43:25.383Z,6.10
2018-08-17T09:45:59.924Z,5.57
2018-08-17T09:48:34.407Z,5.20
2018-08-17T09:51:08.865Z,4.77
2018-08-17T09:53:43.447Z,6.10
2018-08-17T09:56:17.211Z,5.33
2018-08-17T09:58:50.860Z,4.70
2018-08-17T10:01:24.759Z,4.60
2018-08-17T10:03:58.496Z,4.47
2018-08-17T10:06:32.226Z,5.10
2018-08-17T10:09:05.912Z,5.10
2018-08-17T10:11:40.334Z,4.80
2018-08-17T10:14:14.758Z,4.70
2018-08-17T10:16:48.583Z,4.83
2018-08-17T10:19:22.307Z,4.10
2018-08-17T10:21:56.853Z,5.00
2018-08-17T10:24:30.521Z,4.87
2018-08-17T10:27:04.335Z,4.90
2018-08-17T10:29:38.100Z,5.20
2018-08-17T10:32:11.963Z,4.50
2018-08-17T10:34:45.721Z,5.00
2018-08-17T10:37:20.200Z,4.67
2018-08-17T10:39:53.892Z,5.17
2018-08-17T10:42:27.785Z,4.80
2018-08-17T10:45:01.480Z,5.37
2018-08-17T10:47:35.241Z,4.40
2018-08-17T10:50:09.854Z,5.20
2018-08-17T10:52:43.746Z,5.17
2018-08-17T10:55:17.723Z,5.10
2018-08-17T10:57:51.838Z,5.73
2018-08-17T11:00:25.809Z,8.53
2018-08-17T11:03:00.363Z,4.40
2018-08-17T11:05:34.132Z,4.93
2018-08-17T11:08:08.700Z,4.63
2018-08-17T11:10:42.323Z,4.20
2018-08-17T11:13:16.081Z,4.80
2018-08-17T11:15:50.691Z,4.93
2018-08-17T11:18:24.452Z,4.70
2018-08-17T11:20:58.386Z,5.27
2018-08-17T11:23:32.052Z,4.70
2018-08-17T11:26:05.885Z,4.80
2018-08-17T11:28:39.700Z,5.00
2018-08-17T11:31:13.513Z,5.50
2018-08-17T11:33:47.350Z,5.00
2018-08-17T11:36:21.173Z,4.93
2018-08-17T11:38:56.747Z,4.13
2018-08-17T11:41:30.587Z,5.77
2018-08-17T11:44:04.156Z,4.90
2018-08-17T11:46:38.023Z,5.30
2018-08-17T11:49:11.911Z,5.03
2018-08-17T11:51:45.740Z,6.20
2018-08-17T11:54:20.302Z,4.80
2018-08-17T11:56:54.220Z,6.43
2018-08-17T11:59:28.792Z,4.50
2018-08-17T12:02:02.662Z,4.97
2018-08-17T12:04:36.423Z,5.03
2018-08-17T12:07:10.369Z,5.60
2018-08-17T12:09:44.222Z,5.23
2018-08-17T12:12:18.611Z,5.33
2018-08-17T12:14:53.118Z,4.40
2018-08-17T12:17:26.981Z,4.90
2018-08-17T12:20:01.601Z,4.70
2018-08-17T12:22:35.442Z,4.80
2018-08-17T12:25:10.212Z,4.80
2018-08-17T12:27:43.894Z,5.27
2018-08-17T12:30:18.544Z,5.40
2018-08-17T12:32:53.201Z,4.90
2018-08-17T12:35:26.927Z,5.37
2018-08-17T12:38:00.576Z,4.80
2018-08-17T12:40:34.328Z,4.83
2018-08-17T12:43:08.028Z,4.70
2018-08-17T12:45:41.729Z,6.13
2018-08-17T12:48:16.187Z,4.80
2018-08-17T12:50:49.993Z,4.83
2018-08-17T12:53:23.775Z,4.90
2018-08-17T12:55:57.566Z,4.50
2018-08-17T12:58:31.263Z,5.27
2018-08-17T13:01:05.032Z,5.00
2018-08-17T13:03:38.907Z,4.90
2018-08-17T13:06:12.747Z,4.87
2018-08-17T13:08:46.636Z,4.77
2018-08-17T13:11:21.292Z,5.60
2018-08-17T13:13:55.259Z,5.40
2018-08-17T13:16:29.750Z,5.30
2018-08-17T13:19:05.090Z,5.57
2018-08-17T13:21:38.881Z,5.60
2018-08-17T13:24:13.656Z,5.37
2018-08-17T13:26:48.180Z,5.07
2018-08-17T13:29:21.979Z,4.90
2018-08-17T13:31:55.767Z,4.77
2018-08-17T13:34:29.600Z,4.70
2018-08-17T13:37:03.440Z,6.37
2018-08-17T13:39:37.448Z,5.87
2018-08-17T13:42:11.376Z,5.17
2018-08-17T13:44:45.187Z,4.90
2018-08-17T13:47:18.780Z,5.17
2018-08-17T13:49:53.324Z,5.70
2018-08-17T13:52:27.100Z,5.17
2018-08-17T13:55:00.967Z,5.70
2018-08-17T13:57:34.620Z,5.77
2018-08-17T14:00:08.377Z,5.03
2018-08-17T14:02:42.123Z,8.10
2018-08-17T14:05:15.975Z,4.90
2018-08-17T14:07:49.701Z,5.70
2018-08-17T14:10:23.579Z,4.30
2018-08-17T14:12:57.404Z,5.10
2018-08-17T14:15:31.771Z,5.17
2018-08-17T14:18:05.601Z,5.00
2018-08-17T14:20:39.403Z,4.90
2018-08-17T14:23:13.177Z,5.17
2018-08-17T14:25:47.828Z,5.30
2018-08-17T14:28:21.745Z,6.10
2018-08-17T14:30:56.204Z,4.97
2018-08-17T14:33:30.090Z,5.87
2018-08-17T14:36:08.001Z,5.80
2018-08-17T14:38:41.743Z,8.63
2018-08-17T14:41:16.179Z,7.60
2018-08-17T14:43:49.883Z,7.03
2018-08-17T14:46:24.541Z,5.77
2018-08-17T14:48:59.041Z,5.70
2018-08-17T14:51:32.715Z,6.47
2018-08-17T14:54:06.369Z,7.20
2018-08-17T14:56:40.141Z,8.50
2018-08-17T14:59:13.832Z,10.23
2018-08-17T15:01:47.560Z,21.00
2018-08-17T15:04:22.044Z,5.90
2018-08-17T15:06:55.911Z,4.87
2018-08-17T15:09:30.478Z,5.13
2018-08-17T15:12:04.313Z,5.07
2018-08-17T15:14:38.818Z,4.77
2018-08-17T15:17:12.544Z,4.43
2018-08-17T15:19:46.942Z,6.27
2018-08-17T15:22:20.773Z,7.17
2018-08-17T15:24:54.440Z,4.97
2018-08-17T15:27:28.093Z,4.70
2018-08-17T15:30:02.674Z,4.60
2018-08-17T15:32:36.472Z,4.37
2018-08-17T15:35:10.227Z,5.73
2018-08-17T15:37:44.928Z,5.30
2018-08-17T15:40:19.572Z,4.10
2018-08-17T15:42:53.233Z,4.50
2018-08-17T15:45:30.211Z,5.27
2018-08-17T15:48:04.048Z,4.73
2018-08-17T15:50:38.580Z,4.33
2018-08-17T15:53:13.204Z,4.67
2018-08-17T15:55:46.954Z,4.57
2018-08-17T15:58:22.144Z,4.30
2018-08-17T16:00:55.959Z,4.40
2018-08-17T16:03:30.520Z,4.17
2018-08-17T16:06:05.694Z,4.30
2018-08-17T16:08:40.127Z,4.30
2018-08-17T16:11:13.855Z,4.10
2018-08-17T16:13:47.647Z,4.73
2018-08-17T16:16:22.341Z,4.50
2018-08-17T16:18:56.006Z,6.00
2018-08-17T16:21:30.585Z,5.97
2018-08-17T16:24:05.188Z,6.10
2018-08-17T16:26:38.942Z,5.70
2018-08-17T16:29:13.621Z,4.63
2018-08-17T16:31:48.187Z,4.80
2018-08-17T16:34:21.897Z,5.90
2018-08-17T16:36:56.374Z,4.30
2018-08-17T16:39:30.395Z,5.03
2018-08-17T16:42:04.573Z,6.03
2018-08-17T16:44:39.886Z,5.00
2018-08-17T16:47:14.493Z,6.60
2018-08-17T16:49:48.299Z,5.50
2018-08-17T16:52:22.184Z,5.63
2018-08-17T16:54:55.851Z,5.07
2018-08-17T16:57:29.665Z,8.90
2018-08-17T17:00:03.654Z,5.30
2018-08-17T17:02:37.523Z,5.97
2018-08-17T17:05:11.559Z,6.20
2018-08-17T17:07:45.718Z,5.73
2018-08-17T17:10:19.570Z,5.30
2018-08-17T17:12:53.203Z,5.03
2018-08-17T17:15:27.069Z,5.13
2018-08-17T17:18:01.653Z,5.47
2018-08-17T17:20:36.337Z,5.20
2018-08-17T17:23:10.152Z,5.10
2018-08-17T17:38:51.603Z,5.00
2018-08-17T17:41:25.463Z,5.10
2018-08-17T17:43:59.348Z,5.20
2018-08-17T17:46:33.096Z,5.57
2018-08-17T17:49:07.715Z,5.40
2018-08-17T17:51:41.483Z,5.40
2018-08-17T17:54:15.603Z,6.00
2018-08-17T17:56:49.456Z,5.57
2018-08-17T17:59:24.068Z,5.90
2018-08-17T18:01:57.810Z,6.30
2018-08-17T18:04:31.679Z,6.80
2018-08-17T18:07:05.545Z,7.30
2018-08-17T18:09:40.152Z,8.83
2018-08-17T18:12:15.396Z,7.50
2018-08-17T18:14:49.180Z,8.27
2018-08-17T18:17:23.029Z,8.10
2018-08-17T18:19:56.789Z,8.57
2018-08-17T18:22:30.661Z,8.50
2018-08-17T18:25:04.387Z,9.77
2018-08-17T18:27:38.128Z,9.23
2018-08-17T18:30:11.865Z,10.83
2018-08-17T18:32:46.420Z,9.90
2018-08-17T18:35:20.293Z,9.67
2018-08-17T18:37:54.076Z,9.20
2018-08-17T18:40:29.015Z,9.07
2018-08-17T18:43:02.645Z,9.87
2018-08-17T18:45:36.432Z,11.63
2018-08-17T18:48:11.056Z,10.43
2018-08-17T18:50:44.964Z,11.10
2018-08-17T18:53:18.745Z,9.73
2018-08-17T18:55:52.618Z,9.90
2018-08-17T18:58:26.332Z,10.03
2018-08-17T19:01:00.245Z,10.17
2018-08-17T19:03:34.133Z,9.63
2018-08-17T19:06:08.013Z,9.90
2018-08-17T19:08:41.795Z,9.73
2018-08-17T19:11:16.416Z,9.17
2018-08-17T19:13:50.927Z,8.40
2018-08-17T19:16:24.511Z,8.03
2018-08-17T19:18:58.389Z,8.20
2018-08-17T19:21:32.301Z,8.57
2018-08-17T19:24:06.155Z,8.37
2018-08-17T19:26:40.747Z,7.93
2018-08-17T19:29:14.508Z,7.33
2018-08-17T19:31:48.287Z,8.17
2018-08-17T19:34:22.175Z,7.63
2018-08-17T19:36:55.867Z,8.03
2018-08-17T19:39:29.739Z,7.70
2018-08-17T19:42:03.549Z,7.13
2018-08-17T19:44:38.139Z,7.20
2018-08-17T19:47:11.995Z,7.43
2018-08-17T19:49:45.811Z,7.17
2018-08-17T19:52:19.650Z,6.47
2018-08-17T19:54:53.450Z,6.90
2018-08-17T19:57:27.893Z,6.30
2018-08-17T20:00:01.745Z,6.30
2018-08-17T20:02:35.626Z,6.90
2018-08-17T20:05:09.371Z,6.67
2018-08-17T20:07:43.959Z,6.83
2018-08-17T20:10:17.751Z,7.77
2018-08-17T20:12:51.583Z,9.53
2018-08-17T20:15:25.340Z,7.80
2018-08-17T20:18:00.025Z,7.70
2018-08-17T20:20:33.809Z,8.57
2018-08-17T20:23:07.446Z,9.77
2018-08-17T20:25:41.200Z,9.37
2018-08-17T20:28:15.054Z,7.90
2018-08-17T20:30:48.741Z,7.63
2018-08-17T20:33:22.515Z,8.00
2018-08-17T20:35:56.284Z,8.70
2018-08-17T20:38:31.667Z,8.17
2018-08-17T20:41:05.461Z,8.40
2018-08-17T20:43:39.232Z,8.10
2018-08-17T20:46:13.036Z,10.30
2018-08-17T20:48:46.892Z,8.60
2018-08-17T20:51:20.859Z,8.77
2018-08-17T20:53:54.796Z,9.57
2018-08-17T20:56:28.619Z,9.03
2018-08-17T20:59:02.464Z,8.17
2018-08-17T21:01:36.248Z,8.57
2018-08-17T21:04:10.061Z,8.70
2018-08-17T21:06:43.873Z,9.43
2018-08-17T21:09:17.532Z,8.73
2018-08-17T21:11:52.066Z,9.60
2018-08-17T21:14:25.866Z,9.30
2018-08-17T21:16:59.833Z,9.60
2018-08-17T21:19:33.692Z,8.73
2018-08-17T21:22:07.574Z,10.17
2018-08-17T21:24:41.993Z,9.50
2018-08-17T21:27:15.767Z,10.37
2018-08-17T21:29:49.550Z,9.20
2018-08-17T21:32:23.356Z,9.10
2018-08-17T21:34:57.235Z,9.70
2018-08-17T21:37:31.232Z,8.67
2018-08-17T21:40:04.955Z,9.50
2018-08-17T21:42:40.334Z,10.63
2018-08-17T21:45:14.211Z,10.33
2018-08-17T21:47:48.834Z,9.73
2018-08-17T21:50:22.619Z,10.03
2018-08-17T21:52:56.347Z,10.03
2018-08-17T21:55:30.137Z,10.20
2018-08-17T21:58:04.027Z,10.20
2018-08-17T22:00:37.856Z,10.30
2018-08-17T22:03:11.673Z,13.00
2018-08-17T22:05:45.497Z,15.10
2018-08-17T22:08:20.013Z,20.00
2018-08-17T22:10:53.804Z,19.47
2018-08-17T22:13:28.425Z,14.07
2018-08-17T22:16:02.263Z,19.80
2018-08-17T22:18:36.803Z,18.75
2018-08-17T22:21:10.496Z,16.77
2018-08-17T22:23:44.301Z,18.50
2018-08-17T22:26:18.051Z,21.55
2018-08-17T22:28:51.886Z,21.90
2018-08-17T22:31:25.628Z,20.05
2018-08-17T22:34:00.288Z,21.67
2018-08-17T22:36:34.060Z,20.48
2018-08-17T22:39:08.529Z,22.20
2018-08-17T22:41:42.310Z,21.67
2018-08-17T22:44:16.107Z,17.95
2018-08-17T22:46:49.893Z,16.20
2018-08-17T22:49:24.365Z,16.45
2018-08-17T22:51:58.058Z,16.65
2018-08-17T22:54:32.707Z,16.50
2018-08-17T22:57:06.588Z,17.27
2018-08-17T22:59:40.544Z,16.60
2018-08-17T23:02:14.215Z,16.75
2018-08-17T23:04:48.072Z,16.20
2018-08-17T23:07:22.547Z,17.12
2018-08-17T23:09:56.371Z,16.98
2018-08-17T23:12:30.129Z,14.93
2018-08-17T23:15:03.908Z,15.98
2018-08-17T23:17:37.759Z,17.30
2018-08-17T23:20:12.270Z,16.27
2018-08-17T23:22:46.811Z,16.20
2018-08-17T23:25:20.606Z,15.50
2018-08-17T23:27:54.372Z,15.18
2018-08-17T23:30:28.135Z,16.17
2018-08-17T23:33:02.757Z,16.27
2018-08-17T23:35:36.649Z,18.25
2018-08-17T23:38:11.168Z,17.83
2018-08-17T23:40:45.043Z,18.05
2018-08-17T23:43:18.952Z,17.00
2018-08-17T23:45:53.547Z,17.67
2018-08-17T23:48:28.195Z,19.20
2018-08-17T23:51:01.938Z,18.30
2018-08-17T23:53:35.797Z,17.98
2018-08-17T23:56:10.336Z,18.20
2018-08-17T23:58:44.136Z,17.23
